createdAt,value
2023-04-12T00:01:01.136Z,10.20
2023-04-12T00:06:10.485Z,10.19
2023-04-12T00:11:14.049Z,10.15
2023-04-12T00:16:20.178Z,10.07
2023-04-12T00:21:24.010Z,9.97
2023-04-12T00:26:47.819Z,9.91
2023-04-12T00:31:51.508Z,9.89
2023-04-12T00:36:57.600Z,9.89
2023-04-12T00:42:21.400Z,9.88
2023-04-12T00:47:36.915Z,9.84
2023-04-12T00:52:54.706Z,9.74
2023-04-12T00:58:01.215Z,9.62
2023-04-12T01:03:05.696Z,9.55
2023-04-12T01:09:01.262Z,9.51
2023-04-12T01:14:14.289Z,9.48
2023-04-12T01:19:53.868Z,9.45
2023-04-12T01:26:01.054Z,9.41
2023-04-12T01:31:09.095Z,9.42
2023-04-12T01:36:34.846Z,9.44
2023-04-12T01:41:53.421Z,9.41
2023-04-12T01:47:20.073Z,9.33
2023-04-12T01:53:09.047Z,9.32
2023-04-12T01:59:15.317Z,9.30
2023-04-12T02:04:20.174Z,9.32
2023-04-12T02:09:41.003Z,9.31
2023-04-12T02:15:08.732Z,9.25
2023-04-12T02:20:17.678Z,9.22
2023-04-12T02:25:24.476Z,9.18
2023-04-12T02:30:31.216Z,9.22
2023-04-12T02:35:39.549Z,9.25
2023-04-12T02:40:50.682Z,9.24
2023-04-12T02:45:54.747Z,9.22
2023-04-12T02:51:01.374Z,9.17
2023-04-12T02:56:15.924Z,9.16
2023-04-12T03:01:26.884Z,9.18
2023-04-12T03:07:06.855Z,9.19
2023-04-12T03:12:16.354Z,9.21
2023-04-12T03:17:28.495Z,9.18
2023-04-12T03:22:32.322Z,9.17
2023-04-12T03:27:38.631Z,9.16
2023-04-12T03:32:45.158Z,9.18
2023-04-12T03:37:48.484Z,9.23
2023-04-12T03:42:55.383Z,9.26
2023-04-12T03:47:58.765Z,9.29
2023-04-12T03:53:03.073Z,9.26
2023-04-12T03:58:10.349Z,9.22
2023-04-12T04:03:18.528Z,9.23
2023-04-12T04:08:29.839Z,9.23
2023-04-12T04:13:33.656Z,9.23
2023-04-12T04:18:40.457Z,9.21
2023-04-12T04:23:45.588Z,9.17
2023-04-12T04:28:50.439Z,9.19
2023-04-12T04:33:59.014Z,9.21
2023-04-12T04:39:16.571Z,9.30
2023-04-12T04:44:21.910Z,9.37
2023-04-12T04:49:44.026Z,9.39
2023-04-12T04:55:13.172Z,9.37
2023-04-12T05:00:20.180Z,9.39
2023-04-12T05:05:30.511Z,9.46
2023-04-12T05:10:46.382Z,9.48
2023-04-12T05:15:50.628Z,9.49
2023-04-12T05:20:54.309Z,9.47
2023-04-12T05:25:58.004Z,9.46
2023-04-12T05:31:01.948Z,9.50
2023-04-12T05:36:34.724Z,9.53
2023-04-12T05:41:39.535Z,9.54
2023-04-12T05:46:42.999Z,9.55
2023-04-12T05:51:52.330Z,9.59
2023-04-12T05:57:08.947Z,9.66
2023-04-12T06:02:20.051Z,9.72
2023-04-12T06:07:24.834Z,9.79
2023-04-12T06:12:38.604Z,9.80
2023-04-12T06:18:02.460Z,9.82
2023-04-12T06:23:16.278Z,9.87
2023-04-12T06:28:53.508Z,9.94
2023-04-12T06:34:01.487Z,9.93
2023-04-12T06:39:12.216Z,9.92
2023-04-12T06:44:23.268Z,9.93
2023-04-12T06:49:27.301Z,9.91
2023-04-12T06:54:40.264Z,9.93
2023-04-12T07:00:04.060Z,9.96
2023-04-12T07:05:07.805Z,9.98
2023-04-12T07:10:33.942Z,10.03
2023-04-12T07:15:37.373Z,10.04
2023-04-12T07:20:41.006Z,10.03
2023-04-12T07:26:04.911Z,10.03
2023-04-12T07:31:11.288Z,10.08
2023-04-12T07:36:26.531Z,10.10
2023-04-12T07:41:30.088Z,10.09
2023-04-12T07:46:42.780Z,10.08
2023-04-12T07:51:56.492Z,10.13
2023-04-12T07:57:00.675Z,10.12
2023-04-12T08:02:06.388Z,10.09
2023-04-12T08:07:13.119Z,10.08
2023-04-12T08:12:21.324Z,10.06
2023-04-12T08:17:27.686Z,10.09
2023-04-12T08:22:31.482Z,10.09
2023-04-12T08:27:35.123Z,10.15
2023-04-12T08:32:41.930Z,10.18
2023-04-12T08:37:45.613Z,10.18
2023-04-12T08:42:55.649Z,10.21
2023-04-12T08:48:04.112Z,10.24
2023-04-12T08:53:27.958Z,10.27
2023-04-12T08:58:52.834Z,10.39
2023-04-12T09:03:56.697Z,10.58
2023-04-12T09:09:01.695Z,10.78
2023-04-12T09:14:22.722Z,11.01
2023-04-12T09:19:40.921Z,11.23
2023-04-12T09:24:53.531Z,11.44
2023-04-12T09:30:32.212Z,11.58
2023-04-12T09:36:19.169Z,11.57
2023-04-12T09:41:32.139Z,11.61
2023-04-12T09:46:56.597Z,11.72
2023-04-12T09:52:20.620Z,11.83
2023-04-12T09:57:27.788Z,11.87
2023-04-12T10:02:32.295Z,11.96
2023-04-12T10:07:46.059Z,12.08
2023-04-12T10:12:52.344Z,12.04
2023-04-12T10:17:57.529Z,12.03
2023-04-12T10:23:01.571Z,12.22
2023-04-12T10:28:24.148Z,12.43
2023-04-12T10:33:30.936Z,12.64
2023-04-12T10:38:46.683Z,12.65
2023-04-12T10:43:52.118Z,12.66
2023-04-12T10:48:57.968Z,12.81
2023-04-12T10:54:07.829Z,12.99
2023-04-12T10:59:12.571Z,13.09
2023-04-12T11:04:22.306Z,13.18
2023-04-12T11:09:45.746Z,13.24
2023-04-12T11:15:03.960Z,13.29
2023-04-12T11:20:28.258Z,13.30
2023-04-12T11:25:32.326Z,13.30
2023-04-12T11:30:36.370Z,13.23
2023-04-12T11:35:43.830Z,13.17
2023-04-12T11:40:48.664Z,13.22
2023-04-12T11:46:02.445Z,13.22
2023-04-12T11:51:25.447Z,13.25
2023-04-12T11:56:29.971Z,13.21
2023-04-12T12:01:37.906Z,13.06
2023-04-12T12:06:42.254Z,13.10
2023-04-12T12:12:06.748Z,13.25
2023-04-12T12:17:15.557Z,13.19
2023-04-12T12:22:24.488Z,13.26
2023-04-12T12:27:31.077Z,13.41
2023-04-12T12:32:45.349Z,13.53
2023-04-12T12:37:55.958Z,13.72
2023-04-12T12:43:00.500Z,13.90
2023-04-12T12:48:13.415Z,14.00
2023-04-12T12:53:17.216Z,14.06
2023-04-12T12:58:28.711Z,14.06
2023-04-12T13:03:32.907Z,14.07
2023-04-12T13:08:45.724Z,14.16
2023-04-12T13:13:49.500Z,14.23
2023-04-12T13:18:52.910Z,14.26
2023-04-12T13:24:07.826Z,14.30
2023-04-12T13:29:14.221Z,14.35
2023-04-12T13:34:17.724Z,14.35
2023-04-12T13:39:22.058Z,14.40
2023-04-12T13:44:27.977Z,14.28
2023-04-12T13:49:31.566Z,14.27
2023-04-12T13:54:35.130Z,14.36
2023-04-12T13:59:38.982Z,14.44
2023-04-12T14:04:53.518Z,14.43
2023-04-12T14:09:57.958Z,14.40
2023-04-12T14:15:04.699Z,14.40
2023-04-12T14:20:12.839Z,14.39
2023-04-12T14:25:16.500Z,14.39
2023-04-12T14:30:19.947Z,14.35
2023-04-12T14:35:23.399Z,14.29
2023-04-12T14:40:27.076Z,14.23
2023-04-12T14:45:30.654Z,14.17
2023-04-12T14:50:34.357Z,14.14
2023-04-12T14:55:37.750Z,14.11
2023-04-12T15:00:41.847Z,14.06
2023-04-12T15:05:54.339Z,14.04
2023-04-12T15:10:57.844Z,14.01
2023-04-12T15:16:20.187Z,14.01
2023-04-12T15:21:23.636Z,14.01
2023-04-12T15:26:26.943Z,14.00
2023-04-12T15:31:30.628Z,14.04
2023-04-12T15:36:36.746Z,14.09
2023-04-12T15:41:41.905Z,14.12
2023-04-12T15:46:53.295Z,14.10
2023-04-12T15:52:07.356Z,14.03
2023-04-12T15:57:11.738Z,14.01
2023-04-12T16:02:15.304Z,13.93
2023-04-12T16:07:19.038Z,13.88
2023-04-12T16:12:22.446Z,13.84
2023-04-12T16:17:25.891Z,13.83
2023-04-12T16:22:29.409Z,13.77
2023-04-12T16:27:33.140Z,13.70
2023-04-12T16:32:37.368Z,13.61
2023-04-12T16:37:42.618Z,13.51
2023-04-12T16:42:48.647Z,13.40
2023-04-12T16:47:52.060Z,13.31
2023-04-12T16:52:55.828Z,13.22
2023-04-12T16:57:59.316Z,13.15
2023-04-12T17:03:03.457Z,13.07
2023-04-12T17:08:09.738Z,12.97
2023-04-12T17:13:19.494Z,12.86
2023-04-12T17:18:24.082Z,12.77
2023-04-12T17:23:29.849Z,12.66
2023-04-12T17:28:43.632Z,12.54
2023-04-12T17:33:47.334Z,12.40
2023-04-12T17:38:57.226Z,12.23
2023-04-12T17:44:00.891Z,12.05
2023-04-12T17:49:06.871Z,11.90
2023-04-12T17:54:12.826Z,11.79
2023-04-12T17:59:16.621Z,11.69
2023-04-12T18:04:23.303Z,11.61
2023-04-12T18:10:10.387Z,11.53
2023-04-12T18:15:14.111Z,11.45
2023-04-12T18:20:21.463Z,11.38
2023-04-12T18:25:25.118Z,11.32
2023-04-12T18:30:28.549Z,11.27
2023-04-12T18:35:32.424Z,11.25
2023-04-12T18:40:38.074Z,11.22
2023-04-12T18:45:41.801Z,11.20
2023-04-12T18:50:51.811Z,11.14
2023-04-12T18:55:55.287Z,11.03
2023-04-12T19:00:58.661Z,11.01
2023-04-12T19:06:04.821Z,10.98
2023-04-12T19:11:08.290Z,10.92
2023-04-12T19:16:12.828Z,10.84
2023-04-12T19:21:19.124Z,10.71
2023-04-12T19:26:23.519Z,10.64
2023-04-12T19:31:27.824Z,10.49
2023-04-12T19:36:51.668Z,10.39
2023-04-12T19:41:55.102Z,10.28
2023-04-12T19:47:01.713Z,10.19
2023-04-12T19:52:05.807Z,10.07
2023-04-12T19:57:09.448Z,9.91
2023-04-12T20:02:25.447Z,9.77
2023-04-12T20:07:29.280Z,9.63
2023-04-12T20:12:38.230Z,9.51
2023-04-12T20:17:54.107Z,9.43
2023-04-12T20:23:00.753Z,9.30
2023-04-12T20:28:25.850Z,9.19
2023-04-12T20:33:30.303Z,9.04
2023-04-12T20:38:34.448Z,8.91
2023-04-12T20:43:46.629Z,8.81
2023-04-12T20:49:07.153Z,8.72
2023-04-12T20:54:20.771Z,8.61
2023-04-12T20:59:24.291Z,8.58
2023-04-12T21:04:28.004Z,8.50
2023-04-12T21:09:47.316Z,8.41
2023-04-12T21:14:53.399Z,8.32
2023-04-12T21:19:57.540Z,8.23
2023-04-12T21:25:01.222Z,8.17
2023-04-12T21:30:14.767Z,8.06
2023-04-12T21:35:46.151Z,7.98
2023-04-12T21:41:12.732Z,7.88
2023-04-12T21:46:39.137Z,7.80
2023-04-12T21:51:49.499Z,7.77
2023-04-12T21:56:56.245Z,7.74
2023-04-12T22:02:05.415Z,7.66
2023-04-12T22:07:17.648Z,7.62
2023-04-12T22:12:32.344Z,7.56
2023-04-12T22:17:35.862Z,7.49
2023-04-12T22:22:40.480Z,7.38
2023-04-12T22:28:09.397Z,7.32
2023-04-12T22:33:13.828Z,7.28
2023-04-12T22:38:19.898Z,7.17
2023-04-12T22:43:24.458Z,7.04
2023-04-12T22:48:32.356Z,6.98
2023-04-12T22:53:44.882Z,6.93
2023-04-12T22:58:50.680Z,6.86
2023-04-12T23:03:57.482Z,6.76
2023-04-12T23:09:01.638Z,6.73
2023-04-12T23:14:08.468Z,6.69
2023-04-12T23:19:16.697Z,6.61
2023-04-12T23:24:20.373Z,6.54
2023-04-12T23:29:26.253Z,6.48
2023-04-12T23:34:46.575Z,6.54
2023-04-12T23:40:05.462Z,6.55
2023-04-12T23:45:12.259Z,6.52
2023-04-12T23:50:19.469Z,6.50
2023-04-12T23:55:23.211Z,6.41
